Marsland, NE (69354)

1:08 AM MST on November 29, 2014 (GMT -0700)
Deadman | Change Station
CLOSE
Current Station
Personal Weather Station
Location: Crawford, NE
Elevation: 4180 ft
Nearby Weather Stations

Elev 4180 ft 42.58 °N, 103.47 °W | Updated 33 seconds ago

Clear
Clear
42.3 °F
Feels Like 42 °F
N
2.7
Wind Variable Wind from SE
Gusts 5.8 mph

Today
High -- | Low -- °F
--% Chance of Precip.
Yesterday
High -- | Low -- °F
Precip. -- in
7:00 AM 4:20 PM
Waxing Crescent, 49% visible
Pressure 29.59 in
Visibility 10.0 miles
Clouds Clear
Windchill 42 °F
Dew Point 20 °F
Humidity 40%
Rainfall 0.00 in
Snow Depth Not available.
UV 0 out of 12
Pollen .10 out of 12
Air Quality Not available.
Flu Activity Not available.
METAR KAIA 290753Z AUTO 00000KT 10SM CLR 02/M08 A2963 RMK AO2 SLP019 T00171078

More Conditions Fewer Conditions

Pressure 29.59 in
Visibility 10.0 miles
Clouds Clear
Windchill 42 °F
Dew Point 20 °F
Humidity 40%
Rainfall 0.00 in
Snow Depth Not available.
UV 0 out of 12
Pollen .10 out of 12
Air Quality Not available.
Flu Activity Not available.
METAR KAIA 290753Z AUTO 00000KT 10SM CLR 02/M08 A2963 RMK AO2 SLP019 T00171078

More Conditions Fewer Conditions

10-Day Weather Forecast

Almanac

Astronomy

Nov. 29, 2014 Rise Set
Actual Time
Civil Twilight
Nautical Twilight
Astronomical Twilight
Moon
Length of Visible Light
Length of Day
Tomorrow will be .
, % of the Moon is Illuminated

Today's Extremes

State Highs State Lows

Community

WunderPhotos

Upload Photos

1,774,432 photos uploaded!

WunderBlogs® & News

Nearby

Air Quality

  Air Quality AQ Index Pollutant
Not available.

Snow Depth

Station Depth Elevation

Earthquake Activity

City Distance Mag. Time & Date
Minimum magnitude displayed is 2.5.

Coastal Water Temperatures

Place Temperature

Nearby Weather Stations